sensor_id;sensor_type;location;lat;lon;timestamp;P1;durP1;ratioP1;P2;durP2;ratioP2
72379;SDS011;60354;47.798;12.472;2022-10-26T00:02:20;2.08;;;1.17;;
72379;SDS011;60354;47.798;12.472;2022-10-26T00:04:46;2.88;;;1.30;;
72379;SDS011;60354;47.798;12.472;2022-10-26T00:07:11;2.28;;;1.13;;
72379;SDS011;60354;47.798;12.472;2022-10-26T00:09:37;2.20;;;1.20;;
72379;SDS011;60354;47.798;12.472;2022-10-26T00:12:02;3.45;;;1.05;;
72379;SDS011;60354;47.798;12.472;2022-10-26T00:14:28;3.67;;;1.30;;
72379;SDS011;60354;47.798;12.472;2022-10-26T00:16:53;4.38;;;1.10;;
72379;SDS011;60354;47.798;12.472;2022-10-26T00:19:19;4.63;;;1.30;;
72379;SDS011;60354;47.798;12.472;2022-10-26T00:21:44;2.05;;;1.10;;
72379;SDS011;60354;47.798;12.472;2022-10-26T00:24:10;4.03;;;1.20;;
72379;SDS011;60354;47.798;12.472;2022-10-26T00:26:37;1.77;;;0.95;;
72379;SDS011;60354;47.798;12.472;2022-10-26T00:29:03;4.13;;;1.20;;
72379;SDS011;60354;47.798;12.472;2022-10-26T00:31:28;3.60;;;1.38;;
72379;SDS011;60354;47.798;12.472;2022-10-26T00:33:54;3.45;;;1.02;;
72379;SDS011;60354;47.798;12.472;2022-10-26T00:36:21;2.97;;;1.10;;
72379;SDS011;60354;47.798;12.472;2022-10-26T00:38:50;3.67;;;1.20;;
72379;SDS011;60354;47.798;12.472;2022-10-26T00:41:19;3.63;;;1.00;;
72379;SDS011;60354;47.798;12.472;2022-10-26T00:43:47;2.15;;;1.10;;
72379;SDS011;60354;47.798;12.472;2022-10-26T00:46:30;1.33;;;0.95;;
72379;SDS011;60354;47.798;12.472;2022-10-26T00:49:14;2.70;;;1.05;;
72379;SDS011;60354;47.798;12.472;2022-10-26T00:51:45;1.90;;;1.08;;
72379;SDS011;60354;47.798;12.472;2022-10-26T00:54:15;1.65;;;1.10;;
72379;SDS011;60354;47.798;12.472;2022-10-26T00:56:43;1.67;;;0.90;;
72379;SDS011;60354;47.798;12.472;2022-10-26T00:59:11;4.22;;;1.00;;
72379;SDS011;60354;47.798;12.472;2022-10-26T01:01:39;4.13;;;0.93;;
72379;SDS011;60354;47.798;12.472;2022-10-26T01:04:07;3.58;;;1.20;;
72379;SDS011;60354;47.798;12.472;2022-10-26T01:06:33;1.48;;;1.02;;
72379;SDS011;60354;47.798;12.472;2022-10-26T01:09:01;4.50;;;1.20;;
72379;SDS011;60354;47.798;12.472;2022-10-26T01:11:27;1.60;;;1.10;;
72379;SDS011;60354;47.798;12.472;2022-10-26T01:13:52;3.22;;;1.05;;
72379;SDS011;60354;47.798;12.472;2022-10-26T01:16:36;3.10;;;1.05;;
72379;SDS011;60354;47.798;12.472;2022-10-26T01:22:16;2.55;;;1.10;;
72379;SDS011;60354;47.798;12.472;2022-10-26T01:27:26;1.67;;;1.10;;
72379;SDS011;60354;47.798;12.472;2022-10-26T01:43:52;1.58;;;1.00;;
72379;SDS011;60354;47.798;12.472;2022-10-26T01:46:22;1.27;;;0.90;;
72379;SDS011;60354;47.798;12.472;2022-10-26T01:48:50;4.82;;;1.13;;
72379;SDS011;60354;47.798;12.472;2022-10-26T01:51:19;4.15;;;1.20;;
72379;SDS011;60354;47.798;12.472;2022-10-26T01:53:46;1.98;;;1.10;;
72379;SDS011;60354;47.798;12.472;2022-10-26T01:56:22;2.33;;;1.00;;
72379;SDS011;60354;47.798;12.472;2022-10-26T02:01:40;2.40;;;1.02;;
72379;SDS011;60354;47.798;12.472;2022-10-26T02:06:56;2.42;;;0.85;;
72379;SDS011;60354;47.798;12.472;2022-10-26T02:11:53;1.65;;;0.80;;
72379;SDS011;60354;47.798;12.472;2022-10-26T02:17:04;1.15;;;0.90;;
72379;SDS011;60354;47.798;12.472;2022-10-26T02:22:15;0.90;;;0.77;;
72379;SDS011;60354;47.798;12.472;2022-10-26T02:24:46;5.30;;;1.02;;
72379;SDS011;60354;47.798;12.472;2022-10-26T02:27:19;1.70;;;0.80;;
72379;SDS011;60354;47.798;12.472;2022-10-26T02:29:49;1.70;;;0.85;;
72379;SDS011;60354;47.798;12.472;2022-10-26T02:32:18;2.92;;;0.80;;
72379;SDS011;60354;47.798;12.472;2022-10-26T02:34:44;2.15;;;1.20;;
72379;SDS011;60354;47.798;12.472;2022-10-26T02:37:14;3.90;;;0.90;;
72379;SDS011;60354;47.798;12.472;2022-10-26T02:39:42;1.42;;;1.02;;
72379;SDS011;60354;47.798;12.472;2022-10-26T02:42:11;2.20;;;0.85;;
72379;SDS011;60354;47.798;12.472;2022-10-26T02:44:49;1.98;;;0.90;;
72379;SDS011;60354;47.798;12.472;2022-10-26T02:47:17;2.85;;;0.90;;
72379;SDS011;60354;47.798;12.472;2022-10-26T02:49:43;2.05;;;0.98;;
72379;SDS011;60354;47.798;12.472;2022-10-26T02:57:16;3.45;;;0.90;;
72379;SDS011;60354;47.798;12.472;2022-10-26T02:59:45;2.20;;;0.90;;
72379;SDS011;60354;47.798;12.472;2022-10-26T03:02:12;1.65;;;0.90;;
72379;SDS011;60354;47.798;12.472;2022-10-26T03:04:41;1.90;;;0.80;;
72379;SDS011;60354;47.798;12.472;2022-10-26T03:07:06;2.83;;;0.90;;
72379;SDS011;60354;47.798;12.472;2022-10-26T03:09:31;2.05;;;0.80;;
72379;SDS011;60354;47.798;12.472;2022-10-26T03:11:57;1.02;;;0.90;;
72379;SDS011;60354;47.798;12.472;2022-10-26T03:14:22;3.15;;;1.08;;
72379;SDS011;60354;47.798;12.472;2022-10-26T03:16:48;2.90;;;1.25;;
72379;SDS011;60354;47.798;12.472;2022-10-26T03:19:14;1.98;;;1.02;;
72379;SDS011;60354;47.798;12.472;2022-10-26T03:21:39;2.45;;;0.90;;
72379;SDS011;60354;47.798;12.472;2022-10-26T03:24:06;4.63;;;0.93;;
72379;SDS011;60354;47.798;12.472;2022-10-26T03:26:32;3.47;;;1.17;;
72379;SDS011;60354;47.798;12.472;2022-10-26T03:28:58;4.00;;;1.00;;
72379;SDS011;60354;47.798;12.472;2022-10-26T03:31:23;1.92;;;0.95;;
72379;SDS011;60354;47.798;12.472;2022-10-26T03:33:49;2.35;;;1.15;;
72379;SDS011;60354;47.798;12.472;2022-10-26T03:36:14;1.52;;;0.90;;
72379;SDS011;60354;47.798;12.472;2022-10-26T03:38:40;1.58;;;0.90;;
72379;SDS011;60354;47.798;12.472;2022-10-26T03:41:05;3.88;;;0.88;;
72379;SDS011;60354;47.798;12.472;2022-10-26T03:43:31;2.95;;;1.08;;
72379;SDS011;60354;47.798;12.472;2022-10-26T03:45:56;2.35;;;0.90;;
72379;SDS011;60354;47.798;12.472;2022-10-26T03:48:21;2.10;;;0.80;;
72379;SDS011;60354;47.798;12.472;2022-10-26T03:50:47;2.15;;;0.80;;
72379;SDS011;60354;47.798;12.472;2022-10-26T03:53:12;1.55;;;0.80;;
72379;SDS011;60354;47.798;12.472;2022-10-26T03:55:38;1.52;;;1.00;;
72379;SDS011;60354;47.798;12.472;2022-10-26T03:58:03;3.65;;;1.00;;
72379;SDS011;60354;47.798;12.472;2022-10-26T04:00:29;1.35;;;0.73;;
72379;SDS011;60354;47.798;12.472;2022-10-26T04:02:58;0.98;;;0.70;;
72379;SDS011;60354;47.798;12.472;2022-10-26T04:05:24;0.95;;;0.77;;
72379;SDS011;60354;47.798;12.472;2022-10-26T04:07:55;1.23;;;0.90;;
72379;SDS011;60354;47.798;12.472;2022-10-26T04:10:22;1.42;;;0.90;;
72379;SDS011;60354;47.798;12.472;2022-10-26T04:12:48;1.88;;;0.90;;
72379;SDS011;60354;47.798;12.472;2022-10-26T04:15:14;3.45;;;0.80;;
72379;SDS011;60354;47.798;12.472;2022-10-26T04:17:40;1.83;;;0.90;;
72379;SDS011;60354;47.798;12.472;2022-10-26T04:20:06;4.68;;;0.90;;
72379;SDS011;60354;47.798;12.472;2022-10-26T04:22:32;3.53;;;0.90;;
72379;SDS011;60354;47.798;12.472;2022-10-26T04:24:58;1.88;;;1.00;;
72379;SDS011;60354;47.798;12.472;2022-10-26T04:27:23;2.67;;;1.00;;
72379;SDS011;60354;47.798;12.472;2022-10-26T04:29:49;2.33;;;1.00;;
72379;SDS011;60354;47.798;12.472;2022-10-26T04:32:14;1.33;;;0.93;;
72379;SDS011;60354;47.798;12.472;2022-10-26T04:34:42;1.83;;;1.10;;
72379;SDS011;60354;47.798;12.472;2022-10-26T04:37:08;3.40;;;1.00;;
72379;SDS011;60354;47.798;12.472;2022-10-26T04:39:33;2.88;;;1.30;;
72379;SDS011;60354;47.798;12.472;2022-10-26T04:41:58;1.77;;;1.13;;
72379;SDS011;60354;47.798;12.472;2022-10-26T04:44:24;8.70;;;1.73;;
72379;SDS011;60354;47.798;12.472;2022-10-26T04:46:50;5.22;;;1.52;;
72379;SDS011;60354;47.798;12.472;2022-10-26T04:49:27;1.20;;;1.00;;
72379;SDS011;60354;47.798;12.472;2022-10-26T04:51:57;2.10;;;1.15;;
72379;SDS011;60354;47.798;12.472;2022-10-26T04:54:28;1.38;;;1.08;;
72379;SDS011;60354;47.798;12.472;2022-10-26T04:56:54;2.78;;;1.10;;
72379;SDS011;60354;47.798;12.472;2022-10-26T04:59:22;2.90;;;1.10;;
72379;SDS011;60354;47.798;12.472;2022-10-26T05:01:50;5.30;;;1.00;;
72379;SDS011;60354;47.798;12.472;2022-10-26T05:04:18;4.38;;;1.00;;
72379;SDS011;60354;47.798;12.472;2022-10-26T05:06:51;4.18;;;1.30;;
72379;SDS011;60354;47.798;12.472;2022-10-26T05:09:22;5.30;;;1.23;;
72379;SDS011;60354;47.798;12.472;2022-10-26T05:11:48;2.83;;;1.70;;
72379;SDS011;60354;47.798;12.472;2022-10-26T05:14:17;3.53;;;2.10;;
72379;SDS011;60354;47.798;12.472;2022-10-26T05:16:52;2.40;;;1.35;;
72379;SDS011;60354;47.798;12.472;2022-10-26T05:19:20;2.35;;;1.20;;
72379;SDS011;60354;47.798;12.472;2022-10-26T05:21:48;5.70;;;2.28;;
72379;SDS011;60354;47.798;12.472;2022-10-26T05:24:18;5.10;;;2.00;;
72379;SDS011;60354;47.798;12.472;2022-10-26T05:26:50;3.90;;;1.80;;
72379;SDS011;60354;47.798;12.472;2022-10-26T05:29:33;7.32;;;2.10;;
72379;SDS011;60354;47.798;12.472;2022-10-26T05:32:17;4.75;;;1.70;;
72379;SDS011;60354;47.798;12.472;2022-10-26T05:34:55;4.50;;;1.48;;
72379;SDS011;60354;47.798;12.472;2022-10-26T05:37:31;3.15;;;1.30;;
72379;SDS011;60354;47.798;12.472;2022-10-26T05:40:08;2.65;;;1.00;;
72379;SDS011;60354;47.798;12.472;2022-10-26T05:42:49;5.93;;;1.13;;
72379;SDS011;60354;47.798;12.472;2022-10-26T05:45:42;1.73;;;1.10;;
72379;SDS011;60354;47.798;12.472;2022-10-26T05:48:13;2.97;;;1.30;;
72379;SDS011;60354;47.798;12.472;2022-10-26T05:50:49;3.08;;;1.20;;
72379;SDS011;60354;47.798;12.472;2022-10-26T05:53:23;2.70;;;1.40;;
72379;SDS011;60354;47.798;12.472;2022-10-26T05:55:56;1.40;;;1.10;;
72379;SDS011;60354;47.798;12.472;2022-10-26T05:58:46;2.10;;;1.58;;
72379;SDS011;60354;47.798;12.472;2022-10-26T06:01:36;2.97;;;1.13;;
72379;SDS011;60354;47.798;12.472;2022-10-26T06:04:38;2.55;;;0.85;;
72379;SDS011;60354;47.798;12.472;2022-10-26T06:07:19;1.60;;;0.93;;
72379;SDS011;60354;47.798;12.472;2022-10-26T06:09:57;2.67;;;1.10;;
72379;SDS011;60354;47.798;12.472;2022-10-26T06:12:32;2.78;;;1.15;;
72379;SDS011;60354;47.798;12.472;2022-10-26T06:15:04;3.90;;;0.90;;
72379;SDS011;60354;47.798;12.472;2022-10-26T06:23:57;1.27;;;1.10;;
72379;SDS011;60354;47.798;12.472;2022-10-26T06:26:32;1.85;;;0.90;;
72379;SDS011;60354;47.798;12.472;2022-10-26T06:32:00;3.08;;;1.08;;
72379;SDS011;60354;47.798;12.472;2022-10-26T06:34:26;1.45;;;0.90;;
72379;SDS011;60354;47.798;12.472;2022-10-26T06:36:56;6.75;;;1.05;;
72379;SDS011;60354;47.798;12.472;2022-10-26T06:39:24;3.20;;;1.10;;
72379;SDS011;60354;47.798;12.472;2022-10-26T06:41:54;3.50;;;1.10;;
72379;SDS011;60354;47.798;12.472;2022-10-26T06:44:23;1.35;;;0.90;;
72379;SDS011;60354;47.798;12.472;2022-10-26T06:54:50;3.45;;;1.20;;
72379;SDS011;60354;47.798;12.472;2022-10-26T06:57:22;5.00;;;1.27;;
72379;SDS011;60354;47.798;12.472;2022-10-26T07:00:02;2.15;;;1.20;;
72379;SDS011;60354;47.798;12.472;2022-10-26T07:04:58;1.15;;;1.00;;
72379;SDS011;60354;47.798;12.472;2022-10-26T07:07:24;3.22;;;1.00;;
72379;SDS011;60354;47.798;12.472;2022-10-26T07:09:51;3.25;;;1.25;;
72379;SDS011;60354;47.798;12.472;2022-10-26T07:12:17;1.58;;;1.08;;
72379;SDS011;60354;47.798;12.472;2022-10-26T07:14:45;6.25;;;1.58;;
72379;SDS011;60354;47.798;12.472;2022-10-26T07:17:11;1.40;;;1.05;;
72379;SDS011;60354;47.798;12.472;2022-10-26T07:19:39;5.20;;;0.90;;
72379;SDS011;60354;47.798;12.472;2022-10-26T07:22:09;19.38;;;2.17;;
72379;SDS011;60354;47.798;12.472;2022-10-26T07:24:47;20.00;;;1.88;;
72379;SDS011;60354;47.798;12.472;2022-10-26T07:27:25;23.08;;;2.25;;
72379;SDS011;60354;47.798;12.472;2022-10-26T07:29:50;3.00;;;1.60;;
72379;SDS011;60354;47.798;12.472;2022-10-26T07:32:18;4.70;;;1.95;;
72379;SDS011;60354;47.798;12.472;2022-10-26T07:34:43;3.60;;;2.10;;
72379;SDS011;60354;47.798;12.472;2022-10-26T07:37:09;2.63;;;1.52;;
72379;SDS011;60354;47.798;12.472;2022-10-26T07:39:34;3.15;;;1.30;;
72379;SDS011;60354;47.798;12.472;2022-10-26T07:42:00;2.58;;;1.20;;
72379;SDS011;60354;47.798;12.472;2022-10-26T07:44:25;2.60;;;1.35;;
72379;SDS011;60354;47.798;12.472;2022-10-26T07:46:51;4.70;;;1.55;;
72379;SDS011;60354;47.798;12.472;2022-10-26T07:49:16;11.65;;;2.30;;
72379;SDS011;60354;47.798;12.472;2022-10-26T07:51:42;4.90;;;2.13;;
72379;SDS011;60354;47.798;12.472;2022-10-26T07:54:08;6.20;;;2.00;;
72379;SDS011;60354;47.798;12.472;2022-10-26T07:56:33;7.68;;;2.47;;
72379;SDS011;60354;47.798;12.472;2022-10-26T07:58:59;6.60;;;1.90;;
72379;SDS011;60354;47.798;12.472;2022-10-26T08:01:24;3.67;;;1.50;;
72379;SDS011;60354;47.798;12.472;2022-10-26T08:03:50;5.05;;;1.67;;
72379;SDS011;60354;47.798;12.472;2022-10-26T08:06:20;2.60;;;1.27;;
72379;SDS011;60354;47.798;12.472;2022-10-26T08:08:47;2.63;;;1.20;;
72379;SDS011;60354;47.798;12.472;2022-10-26T08:11:13;3.53;;;1.20;;
72379;SDS011;60354;47.798;12.472;2022-10-26T08:13:39;4.43;;;1.13;;
72379;SDS011;60354;47.798;12.472;2022-10-26T08:16:05;6.82;;;1.20;;
72379;SDS011;60354;47.798;12.472;2022-10-26T08:18:31;3.85;;;1.20;;
72379;SDS011;60354;47.798;12.472;2022-10-26T08:21:00;6.13;;;2.30;;
72379;SDS011;60354;47.798;12.472;2022-10-26T08:23:27;7.40;;;1.90;;
72379;SDS011;60354;47.798;12.472;2022-10-26T08:25:56;2.20;;;1.20;;
72379;SDS011;60354;47.798;12.472;2022-10-26T08:28:23;2.83;;;1.63;;
72379;SDS011;60354;47.798;12.472;2022-10-26T08:30:49;2.50;;;1.38;;
72379;SDS011;60354;47.798;12.472;2022-10-26T08:33:14;2.60;;;1.10;;
72379;SDS011;60354;47.798;12.472;2022-10-26T08:35:42;3.65;;;1.17;;
72379;SDS011;60354;47.798;12.472;2022-10-26T08:38:08;5.93;;;1.58;;
72379;SDS011;60354;47.798;12.472;2022-10-26T08:40:39;2.80;;;1.27;;
72379;SDS011;60354;47.798;12.472;2022-10-26T08:43:26;2.78;;;1.30;;
72379;SDS011;60354;47.798;12.472;2022-10-26T08:48:45;8.35;;;1.42;;
72379;SDS011;60354;47.798;12.472;2022-10-26T08:54:11;5.13;;;1.35;;
72379;SDS011;60354;47.798;12.472;2022-10-26T08:56:46;5.72;;;1.20;;
72379;SDS011;60354;47.798;12.472;2022-10-26T09:02:11;3.22;;;1.17;;
72379;SDS011;60354;47.798;12.472;2022-10-26T09:04:38;2.35;;;1.20;;
72379;SDS011;60354;47.798;12.472;2022-10-26T09:12:03;5.63;;;1.13;;
72379;SDS011;60354;47.798;12.472;2022-10-26T09:20:15;2.40;;;1.27;;
72379;SDS011;60354;47.798;12.472;2022-10-26T09:22:45;3.88;;;1.60;;
72379;SDS011;60354;47.798;12.472;2022-10-26T09:25:30;2.92;;;1.50;;
72379;SDS011;60354;47.798;12.472;2022-10-26T09:28:03;2.10;;;1.00;;
72379;SDS011;60354;47.798;12.472;2022-10-26T09:30:32;2.88;;;1.02;;
72379;SDS011;60354;47.798;12.472;2022-10-26T09:33:01;2.40;;;0.98;;
72379;SDS011;60354;47.798;12.472;2022-10-26T09:35:39;4.28;;;1.17;;
72379;SDS011;60354;47.798;12.472;2022-10-26T09:38:29;3.25;;;1.10;;
72379;SDS011;60354;47.798;12.472;2022-10-26T09:40:58;2.15;;;0.93;;
72379;SDS011;60354;47.798;12.472;2022-10-26T09:43:39;1.63;;;0.80;;
72379;SDS011;60354;47.798;12.472;2022-10-26T09:46:32;4.97;;;0.90;;
72379;SDS011;60354;47.798;12.472;2022-10-26T09:49:08;1.90;;;1.10;;
72379;SDS011;60354;47.798;12.472;2022-10-26T09:51:37;3.58;;;1.23;;
72379;SDS011;60354;47.798;12.472;2022-10-26T09:54:04;3.75;;;1.10;;
72379;SDS011;60354;47.798;12.472;2022-10-26T09:56:44;3.97;;;1.00;;
72379;SDS011;60354;47.798;12.472;2022-10-26T09:59:13;4.18;;;1.17;;
72379;SDS011;60354;47.798;12.472;2022-10-26T10:01:40;1.80;;;1.00;;
72379;SDS011;60354;47.798;12.472;2022-10-26T10:06:41;3.25;;;1.10;;
72379;SDS011;60354;47.798;12.472;2022-10-26T10:09:14;3.13;;;1.15;;
72379;SDS011;60354;47.798;12.472;2022-10-26T10:11:43;5.32;;;1.17;;
72379;SDS011;60354;47.798;12.472;2022-10-26T10:14:19;4.57;;;1.10;;
72379;SDS011;60354;47.798;12.472;2022-10-26T10:16:49;2.85;;;0.93;;
72379;SDS011;60354;47.798;12.472;2022-10-26T10:19:25;5.30;;;1.10;;
72379;SDS011;60354;47.798;12.472;2022-10-26T10:22:07;2.85;;;1.10;;
72379;SDS011;60354;47.798;12.472;2022-10-26T10:24:39;1.15;;;0.88;;
72379;SDS011;60354;47.798;12.472;2022-10-26T10:29:48;1.58;;;1.02;;
72379;SDS011;60354;47.798;12.472;2022-10-26T10:32:26;2.45;;;1.30;;
72379;SDS011;60354;47.798;12.472;2022-10-26T10:34:56;2.72;;;1.15;;
72379;SDS011;60354;47.798;12.472;2022-10-26T10:37:40;3.33;;;1.00;;
72379;SDS011;60354;47.798;12.472;2022-10-26T10:40:18;2.95;;;1.20;;
72379;SDS011;60354;47.798;12.472;2022-10-26T10:42:46;5.40;;;1.23;;
72379;SDS011;60354;47.798;12.472;2022-10-26T10:45:17;5.88;;;1.40;;
72379;SDS011;60354;47.798;12.472;2022-10-26T10:47:57;3.33;;;1.17;;
72379;SDS011;60354;47.798;12.472;2022-10-26T10:50:25;1.80;;;1.10;;
72379;SDS011;60354;47.798;12.472;2022-10-26T10:52:51;3.33;;;1.00;;
72379;SDS011;60354;47.798;12.472;2022-10-26T10:55:20;2.83;;;1.30;;
72379;SDS011;60354;47.798;12.472;2022-10-26T11:00:17;5.25;;;1.20;;
72379;SDS011;60354;47.798;12.472;2022-10-26T11:05:37;2.10;;;1.10;;
72379;SDS011;60354;47.798;12.472;2022-10-26T11:08:31;2.63;;;1.02;;
72379;SDS011;60354;47.798;12.472;2022-10-26T11:14:03;4.18;;;1.33;;
72379;SDS011;60354;47.798;12.472;2022-10-26T11:16:36;1.80;;;1.30;;
72379;SDS011;60354;47.798;12.472;2022-10-26T11:19:19;2.85;;;1.55;;
72379;SDS011;60354;47.798;12.472;2022-10-26T11:22:03;5.57;;;1.80;;
72379;SDS011;60354;47.798;12.472;2022-10-26T11:32:40;3.38;;;1.00;;
72379;SDS011;60354;47.798;12.472;2022-10-26T11:46:25;3.55;;;0.93;;
72379;SDS011;60354;47.798;12.472;2022-10-26T11:49:25;3.97;;;0.88;;
72379;SDS011;60354;47.798;12.472;2022-10-26T11:57:54;1.60;;;0.85;;
72379;SDS011;60354;47.798;12.472;2022-10-26T12:00:43;2.80;;;1.00;;
72379;SDS011;60354;47.798;12.472;2022-10-26T12:03:22;1.48;;;0.90;;
72379;SDS011;60354;47.798;12.472;2022-10-26T12:05:59;2.38;;;0.90;;
72379;SDS011;60354;47.798;12.472;2022-10-26T12:09:00;2.45;;;1.00;;
72379;SDS011;60354;47.798;12.472;2022-10-26T12:21:10;1.65;;;0.88;;
72379;SDS011;60354;47.798;12.472;2022-10-26T12:26:56;2.47;;;0.90;;
72379;SDS011;60354;47.798;12.472;2022-10-26T12:29:31;3.20;;;1.08;;
72379;SDS011;60354;47.798;12.472;2022-10-26T12:41:37;2.05;;;0.93;;
72379;SDS011;60354;47.798;12.472;2022-10-26T12:53:00;2.90;;;1.38;;
72379;SDS011;60354;47.798;12.472;2022-10-26T12:58:55;6.07;;;1.52;;
72379;SDS011;60354;47.798;12.472;2022-10-26T13:01:58;3.33;;;1.27;;
72379;SDS011;60354;47.798;12.472;2022-10-26T13:08:03;3.40;;;1.38;;
72379;SDS011;60354;47.798;12.472;2022-10-26T13:10:44;2.72;;;1.00;;
72379;SDS011;60354;47.798;12.472;2022-10-26T13:16:31;3.20;;;1.00;;
72379;SDS011;60354;47.798;12.472;2022-10-26T13:22:45;2.17;;;1.08;;
72379;SDS011;60354;47.798;12.472;2022-10-26T13:29:28;3.63;;;1.10;;
72379;SDS011;60354;47.798;12.472;2022-10-26T13:32:10;3.58;;;1.60;;
72379;SDS011;60354;47.798;12.472;2022-10-26T13:34:58;2.10;;;1.13;;
72379;SDS011;60354;47.798;12.472;2022-10-26T13:40:43;3.10;;;1.20;;
72379;SDS011;60354;47.798;12.472;2022-10-26T13:43:28;5.05;;;1.50;;
72379;SDS011;60354;47.798;12.472;2022-10-26T13:46:44;4.97;;;1.50;;
72379;SDS011;60354;47.798;12.472;2022-10-26T13:49:19;3.95;;;1.20;;
72379;SDS011;60354;47.798;12.472;2022-10-26T13:51:51;3.30;;;1.27;;
72379;SDS011;60354;47.798;12.472;2022-10-26T13:54:46;3.40;;;1.23;;
72379;SDS011;60354;47.798;12.472;2022-10-26T14:00:59;5.15;;;1.30;;
72379;SDS011;60354;47.798;12.472;2022-10-26T14:04:14;6.88;;;1.60;;
72379;SDS011;60354;47.798;12.472;2022-10-26T14:07:15;7.60;;;2.45;;
72379;SDS011;60354;47.798;12.472;2022-10-26T14:10:05;11.50;;;2.25;;
72379;SDS011;60354;47.798;12.472;2022-10-26T14:13:32;5.55;;;1.90;;
72379;SDS011;60354;47.798;12.472;2022-10-26T14:15:59;7.53;;;1.40;;
72379;SDS011;60354;47.798;12.472;2022-10-26T14:18:28;5.95;;;1.90;;
72379;SDS011;60354;47.798;12.472;2022-10-26T14:21:04;4.28;;;1.60;;
72379;SDS011;60354;47.798;12.472;2022-10-26T14:26:20;6.10;;;1.58;;
72379;SDS011;60354;47.798;12.472;2022-10-26T14:28:49;8.68;;;1.73;;
72379;SDS011;60354;47.798;12.472;2022-10-26T14:31:28;4.07;;;1.90;;
72379;SDS011;60354;47.798;12.472;2022-10-26T14:33:59;5.75;;;1.63;;
72379;SDS011;60354;47.798;12.472;2022-10-26T14:36:47;9.25;;;2.20;;
72379;SDS011;60354;47.798;12.472;2022-10-26T14:42:25;5.30;;;1.90;;
72379;SDS011;60354;47.798;12.472;2022-10-26T14:44:53;6.15;;;1.80;;
72379;SDS011;60354;47.798;12.472;2022-10-26T14:47:23;6.68;;;1.80;;
72379;SDS011;60354;47.798;12.472;2022-10-26T14:49:52;6.47;;;1.70;;
72379;SDS011;60354;47.798;12.472;2022-10-26T14:52:20;4.43;;;1.92;;
72379;SDS011;60354;47.798;12.472;2022-10-26T14:55:01;3.10;;;1.75;;
72379;SDS011;60354;47.798;12.472;2022-10-26T14:57:41;4.72;;;1.83;;
72379;SDS011;60354;47.798;12.472;2022-10-26T15:02:49;3.53;;;1.65;;
72379;SDS011;60354;47.798;12.472;2022-10-26T15:07:51;5.55;;;1.80;;
72379;SDS011;60354;47.798;12.472;2022-10-26T15:15:39;5.57;;;1.75;;
72379;SDS011;60354;47.798;12.472;2022-10-26T15:18:14;4.53;;;2.10;;
72379;SDS011;60354;47.798;12.472;2022-10-26T15:20:52;5.57;;;2.20;;
72379;SDS011;60354;47.798;12.472;2022-10-26T15:23:21;3.22;;;1.80;;
72379;SDS011;60354;47.798;12.472;2022-10-26T15:33:40;7.68;;;1.80;;
72379;SDS011;60354;47.798;12.472;2022-10-26T15:38:40;4.50;;;2.03;;
72379;SDS011;60354;47.798;12.472;2022-10-26T15:43:50;5.10;;;1.70;;
72379;SDS011;60354;47.798;12.472;2022-10-26T15:46:17;4.82;;;1.83;;
72379;SDS011;60354;47.798;12.472;2022-10-26T15:48:53;5.13;;;1.70;;
72379;SDS011;60354;47.798;12.472;2022-10-26T15:51:21;4.80;;;2.63;;
72379;SDS011;60354;47.798;12.472;2022-10-26T15:54:00;6.05;;;1.88;;
72379;SDS011;60354;47.798;12.472;2022-10-26T15:56:27;5.22;;;2.10;;
72379;SDS011;60354;47.798;12.472;2022-10-26T15:59:04;6.15;;;2.70;;
72379;SDS011;60354;47.798;12.472;2022-10-26T16:01:42;7.35;;;2.78;;
72379;SDS011;60354;47.798;12.472;2022-10-26T16:05:03;6.30;;;2.53;;
72379;SDS011;60354;47.798;12.472;2022-10-26T16:07:48;5.15;;;1.90;;
72379;SDS011;60354;47.798;12.472;2022-10-26T16:10:19;7.38;;;3.83;;
72379;SDS011;60354;47.798;12.472;2022-10-26T16:12:47;7.03;;;2.60;;
72379;SDS011;60354;47.798;12.472;2022-10-26T16:15:18;6.20;;;2.67;;
72379;SDS011;60354;47.798;12.472;2022-10-26T16:18:05;6.75;;;2.30;;
72379;SDS011;60354;47.798;12.472;2022-10-26T16:20:44;7.45;;;3.00;;
72379;SDS011;60354;47.798;12.472;2022-10-26T16:23:34;9.05;;;3.08;;
72379;SDS011;60354;47.798;12.472;2022-10-26T16:26:00;7.57;;;2.95;;
72379;SDS011;60354;47.798;12.472;2022-10-26T16:28:31;6.07;;;2.47;;
72379;SDS011;60354;47.798;12.472;2022-10-26T16:31:00;5.78;;;2.90;;
72379;SDS011;60354;47.798;12.472;2022-10-26T16:33:27;7.28;;;2.35;;
72379;SDS011;60354;47.798;12.472;2022-10-26T16:35:54;5.57;;;2.72;;
72379;SDS011;60354;47.798;12.472;2022-10-26T16:38:29;5.45;;;2.00;;
72379;SDS011;60354;47.798;12.472;2022-10-26T16:43:29;8.98;;;2.03;;
72379;SDS011;60354;47.798;12.472;2022-10-26T16:45:58;6.68;;;2.17;;
72379;SDS011;60354;47.798;12.472;2022-10-26T16:48:24;9.82;;;2.20;;
72379;SDS011;60354;47.798;12.472;2022-10-26T16:50:53;5.78;;;1.95;;
72379;SDS011;60354;47.798;12.472;2022-10-26T16:53:42;3.97;;;1.85;;
72379;SDS011;60354;47.798;12.472;2022-10-26T16:56:11;6.63;;;2.30;;
72379;SDS011;60354;47.798;12.472;2022-10-26T16:58:45;7.38;;;2.10;;
72379;SDS011;60354;47.798;12.472;2022-10-26T17:01:17;6.97;;;2.05;;
72379;SDS011;60354;47.798;12.472;2022-10-26T17:03:45;3.85;;;1.80;;
72379;SDS011;60354;47.798;12.472;2022-10-26T17:06:12;4.47;;;2.10;;
72379;SDS011;60354;47.798;12.472;2022-10-26T17:08:41;4.80;;;2.00;;
72379;SDS011;60354;47.798;12.472;2022-10-26T17:11:08;6.05;;;2.38;;
72379;SDS011;60354;47.798;12.472;2022-10-26T17:13:36;5.63;;;2.35;;
72379;SDS011;60354;47.798;12.472;2022-10-26T17:16:03;8.48;;;2.35;;
72379;SDS011;60354;47.798;12.472;2022-10-26T17:18:31;6.20;;;2.20;;
72379;SDS011;60354;47.798;12.472;2022-10-26T17:20:56;8.48;;;2.40;;
72379;SDS011;60354;47.798;12.472;2022-10-26T17:23:22;5.40;;;1.95;;
72379;SDS011;60354;47.798;12.472;2022-10-26T17:25:48;4.97;;;1.80;;
72379;SDS011;60354;47.798;12.472;2022-10-26T17:28:14;7.25;;;2.22;;
72379;SDS011;60354;47.798;12.472;2022-10-26T17:30:39;4.63;;;2.72;;
72379;SDS011;60354;47.798;12.472;2022-10-26T17:33:05;4.75;;;2.30;;
72379;SDS011;60354;47.798;12.472;2022-10-26T17:35:32;8.88;;;3.15;;
72379;SDS011;60354;47.798;12.472;2022-10-26T17:37:58;5.97;;;2.53;;
72379;SDS011;60354;47.798;12.472;2022-10-26T17:40:24;6.00;;;2.05;;
72379;SDS011;60354;47.798;12.472;2022-10-26T17:42:50;5.80;;;2.15;;
72379;SDS011;60354;47.798;12.472;2022-10-26T17:45:16;8.85;;;2.20;;
72379;SDS011;60354;47.798;12.472;2022-10-26T17:47:41;7.40;;;2.25;;
72379;SDS011;60354;47.798;12.472;2022-10-26T17:50:07;8.27;;;2.55;;
72379;SDS011;60354;47.798;12.472;2022-10-26T17:52:33;5.88;;;2.28;;
72379;SDS011;60354;47.798;12.472;2022-10-26T17:54:59;6.20;;;2.83;;
72379;SDS011;60354;47.798;12.472;2022-10-26T17:57:24;6.20;;;2.83;;
72379;SDS011;60354;47.798;12.472;2022-10-26T17:59:50;11.05;;;2.95;;
72379;SDS011;60354;47.798;12.472;2022-10-26T18:02:15;5.07;;;2.50;;
72379;SDS011;60354;47.798;12.472;2022-10-26T18:04:41;7.65;;;2.50;;
72379;SDS011;60354;47.798;12.472;2022-10-26T18:07:06;5.20;;;2.40;;
72379;SDS011;60354;47.798;12.472;2022-10-26T18:09:32;8.13;;;2.60;;
72379;SDS011;60354;47.798;12.472;2022-10-26T18:11:58;6.03;;;2.50;;
72379;SDS011;60354;47.798;12.472;2022-10-26T18:14:23;6.88;;;2.75;;
72379;SDS011;60354;47.798;12.472;2022-10-26T18:16:49;9.15;;;3.30;;
72379;SDS011;60354;47.798;12.472;2022-10-26T18:19:14;8.80;;;2.92;;
72379;SDS011;60354;47.798;12.472;2022-10-26T18:21:40;5.65;;;2.90;;
72379;SDS011;60354;47.798;12.472;2022-10-26T18:24:06;3.58;;;2.00;;